Time;durP1;ratioP1;P1;durP2;ratioP2;P2;SDS_P1;SDS_P2;PMS_P1;PMS_P2;Temp;Humidity;BMP_temperature;BMP_pressure;BME280_temperature;BME280_humidity;BME280_pressure;Samples;Min_cycle;Max_cycle;Signal;HPM_P1;HPM_P2
2023/10/05 00:02:20;;;;;;;1999.90;999.90;;;14.20;99.90;;;;;;5100190;28;20897;-73
2023/10/05 00:04:46;;;;;;;1999.90;999.90;;;14.20;99.90;;;;;;5089828;28;20500;-73
2023/10/05 00:07:19;;;;;;;1999.90;999.90;;;14.30;99.90;;;;;;5090462;28;20426;-73
2023/10/05 00:09:46;;;;;;;1999.90;999.90;;;14.30;99.90;;;;;;5093607;28;20516;-73
2023/10/05 00:12:22;;;;;;;1999.90;999.90;;;14.60;99.90;;;;;;5103445;28;20404;-73
2023/10/05 00:15:04;;;;;;;1999.90;999.90;;;14.30;99.90;;;;;;5106859;28;20440;-73
2023/10/05 00:17:34;;;;;;;1999.90;999.90;;;14.30;99.90;;;;;;5114042;28;20457;-73
2023/10/05 00:20:03;;;;;;;1999.90;999.90;;;14.20;99.90;;;;;;5108793;28;20524;-73
2023/10/05 00:22:31;;;;;;;1999.90;999.90;;;14.10;99.90;;;;;;5103380;28;20473;-73
2023/10/05 00:24:57;;;;;;;1999.90;999.90;;;14.10;99.90;;;;;;5093713;28;20783;-73
2023/10/05 00:27:25;;;;;;;1999.90;999.90;;;14.00;99.90;;;;;;5093776;28;20422;-73
2023/10/05 00:29:56;;;;;;;1999.90;999.90;;;14.10;99.90;;;;;;5093452;28;20457;-73
2023/10/05 00:32:26;;;;;;;1999.90;999.90;;;14.10;99.90;;;;;;5103134;28;20409;-73
2023/10/05 00:35:11;;;;;;;1999.90;999.90;;;14.10;99.90;;;;;;5093322;28;20410;-73
2023/10/05 00:37:38;;;;;;;1999.90;999.90;;;14.10;99.90;;;;;;5093667;28;20406;-73
2023/10/05 00:40:10;;;;;;;1999.90;999.90;;;14.00;99.90;;;;;;5093272;28;20436;-73
2023/10/05 00:42:36;;;;;;;1999.90;999.90;;;14.10;99.90;;;;;;5102783;28;20418;-73
2023/10/05 00:45:11;;;;;;;1999.90;999.90;;;14.10;99.90;;;;;;5093091;28;20417;-73
2023/10/05 00:47:38;;;;;;;1999.90;999.90;;;14.10;99.90;;;;;;5093929;28;20430;-73
2023/10/05 00:50:06;;;;;;;1999.90;999.90;;;14.10;99.90;;;;;;5092557;28;20439;-73
2023/10/05 00:52:34;;;;;;;1999.90;999.90;;;14.10;99.90;;;;;;5105498;28;20445;-73
2023/10/05 00:55:06;;;;;;;1999.90;999.90;;;14.10;99.90;;;;;;5108834;28;20556;-73
2023/10/05 00:57:34;;;;;;;1999.90;999.90;;;14.50;99.90;;;;;;5108253;28;20420;-73
2023/10/05 01:00:26;;;;;;;1999.90;999.90;;;14.10;99.90;;;;;;5097823;28;20425;-73
2023/10/05 01:03:16;;;;;;;1999.90;999.90;;;14.00;99.90;;;;;;5098832;28;20475;-73
2023/10/05 01:05:51;;;;;;;1999.90;999.90;;;14.10;99.90;;;;;;5096550;28;20432;-73
2023/10/05 01:08:23;;;;;;;1999.90;999.90;;;14.10;99.90;;;;;;5092929;28;20436;-73
2023/10/05 01:10:54;;;;;;;1999.90;999.90;;;14.00;99.90;;;;;;5094585;28;20429;-73
2023/10/05 01:13:31;;;;;;;1999.90;999.90;;;14.00;99.90;;;;;;5100886;28;20425;-73
2023/10/05 01:15:59;;;;;;;1999.90;999.90;;;13.90;99.90;;;;;;5099952;28;20425;-73
2023/10/05 01:18:29;;;;;;;1999.90;999.90;;;14.00;99.90;;;;;;5098488;28;20428;-73
2023/10/05 01:20:57;;;;;;;1999.90;999.90;;;14.00;99.90;;;;;;5096946;28;20431;-71
2023/10/05 01:23:38;;;;;;;1999.90;999.90;;;14.30;99.90;;;;;;5100732;28;20814;-73
2023/10/05 01:26:08;;;;;;;1999.90;999.90;;;13.90;99.90;;;;;;5105030;28;20965;-73
2023/10/05 01:28:36;;;;;;;1999.90;999.90;;;13.90;99.90;;;;;;5100596;28;20425;-73
2023/10/05 01:31:04;;;;;;;1999.90;999.90;;;13.90;99.90;;;;;;5100254;28;20499;-73
2023/10/05 01:33:31;;;;;;;1999.90;999.90;;;13.90;99.90;;;;;;5105541;28;20507;-73
2023/10/05 01:35:58;;;;;;;1999.90;999.90;;;14.00;99.90;;;;;;5104330;28;20459;-73
2023/10/05 01:38:25;;;;;;;1999.90;999.90;;;14.00;99.90;;;;;;5099902;28;20485;-73
2023/10/05 01:40:54;;;;;;;1999.90;999.90;;;14.00;99.90;;;;;;5100259;28;20428;-73
2023/10/05 01:43:22;;;;;;;1999.90;999.90;;;14.10;99.90;;;;;;5097949;28;20520;-73
2023/10/05 01:45:50;;;;;;;1999.90;999.90;;;13.90;99.90;;;;;;5103621;28;20435;-73
2023/10/05 01:48:18;;;;;;;1999.90;999.90;;;14.00;99.90;;;;;;5105990;28;20783;-73
2023/10/05 01:50:45;;;;;;;1999.90;999.90;;;13.90;99.90;;;;;;5089426;28;20479;-73
2023/10/05 01:53:15;;;;;;;1999.90;999.90;;;14.00;99.90;;;;;;5093292;28;20434;-73
2023/10/05 01:55:44;;;;;;;1999.90;999.90;;;14.00;99.90;;;;;;5098071;28;20507;-73
2023/10/05 01:58:23;;;;;;;1999.90;999.90;;;14.10;99.90;;;;;;5103209;28;20420;-73
2023/10/05 02:00:50;;;;;;;1999.90;999.90;;;14.00;99.90;;;;;;5099921;28;20424;-73
2023/10/05 02:03:23;;;;;;;1999.90;999.90;;;14.10;99.90;;;;;;5094846;28;20435;-73
2023/10/05 02:05:50;;;;;;;1999.90;999.90;;;14.00;99.90;;;;;;5094589;28;20447;-73
2023/10/05 02:08:20;;;;;;;1999.90;999.90;;;14.10;99.90;;;;;;5097037;28;20428;-73
2023/10/05 02:10:48;;;;;;;1999.90;999.90;;;14.00;99.90;;;;;;5105432;28;20428;-73
2023/10/05 02:13:17;;;;;;;1999.90;999.90;;;14.10;99.90;;;;;;5105470;28;20434;-73
2023/10/05 02:15:48;;;;;;;1999.90;999.90;;;14.10;99.90;;;;;;5101664;28;20870;-73
2023/10/05 02:18:22;;;;;;;1999.90;999.90;;;14.10;99.90;;;;;;5093281;28;20479;-73
2023/10/05 02:20:51;;;;;;;1999.90;999.90;;;14.20;99.90;;;;;;5097844;28;20420;-73
2023/10/05 02:23:28;;;;;;;1999.90;999.90;;;14.30;99.90;;;;;;5103089;28;20447;-74
2023/10/05 02:26:05;;;;;;;1999.90;999.90;;;14.40;99.90;;;;;;5104324;28;20428;-73
2023/10/05 02:28:34;;;;;;;1999.90;999.90;;;14.50;99.90;;;;;;5107352;28;20424;-73
2023/10/05 02:31:01;;;;;;;1999.90;999.90;;;14.50;99.90;;;;;;5102379;28;20427;-73
2023/10/05 02:33:31;;;;;;;1999.90;999.90;;;14.40;99.90;;;;;;5099035;28;20487;-73
2023/10/05 02:36:09;;;;;;;1999.90;999.90;;;14.30;99.90;;;;;;5100531;28;20428;-73
2023/10/05 02:38:37;;;;;;;1999.90;999.90;;;14.30;99.90;;;;;;5105442;28;20429;-73
2023/10/05 02:41:05;;;;;;;1999.90;999.90;;;14.10;99.90;;;;;;5106815;28;20447;-72
2023/10/05 02:43:39;;;;;;;1999.90;999.90;;;14.20;99.90;;;;;;5101401;28;20432;-73
2023/10/05 02:46:10;;;;;;;1999.90;999.90;;;14.20;99.90;;;;;;5098065;28;20983;-73
2023/10/05 02:48:39;;;;;;;1999.90;999.90;;;14.20;99.90;;;;;;5105721;28;20830;-73
2023/10/05 02:51:06;;;;;;;1999.90;999.90;;;14.20;99.90;;;;;;5103088;28;20428;-74
2023/10/05 02:53:40;;;;;;;1999.90;999.90;;;14.20;99.90;;;;;;5107076;28;20423;-73
2023/10/05 02:56:17;;;;;;;1999.90;999.90;;;14.30;99.90;;;;;;5107937;28;20424;-73
2023/10/05 02:58:45;;;;;;;1999.90;999.90;;;14.40;99.90;;;;;;5099670;28;20452;-73
2023/10/05 03:01:14;;;;;;;1999.90;999.90;;;14.30;99.90;;;;;;5099200;28;20425;-73
2023/10/05 03:03:42;;;;;;;1999.90;999.90;;;14.50;99.90;;;;;;5104217;28;20428;-73
2023/10/05 03:06:10;;;;;;;1999.90;999.90;;;14.20;99.90;;;;;;5103189;28;20991;-73
2023/10/05 03:08:37;;;;;;;1999.90;999.90;;;14.50;99.90;;;;;;5099512;28;20515;-72
2023/10/05 03:11:07;;;;;;;1999.90;999.90;;;14.20;99.90;;;;;;5093648;28;20823;-73
2023/10/05 03:13:33;;;;;;;1999.90;999.90;;;14.70;99.90;;;;;;5099127;28;20872;-73
2023/10/05 03:16:06;;;;;;;1999.90;999.90;;;14.20;99.90;;;;;;5103529;28;20431;-73
2023/10/05 03:18:33;;;;;;;1999.90;999.90;;;14.20;99.90;;;;;;5100776;28;20439;-73
2023/10/05 03:20:59;;;;;;;1999.90;999.90;;;14.20;99.90;;;;;;5100900;28;20439;-73
2023/10/05 03:23:26;;;;;;;1999.90;999.90;;;14.20;99.90;;;;;;5094604;28;20425;-73
2023/10/05 03:25:53;;;;;;;1999.90;999.90;;;14.30;99.90;;;;;;5100782;28;20427;-73
2023/10/05 03:28:20;;;;;;;1999.90;999.90;;;14.20;99.90;;;;;;5097101;28;20502;-74
2023/10/05 03:30:48;;;;;;;1999.90;999.90;;;14.20;99.90;;;;;;5105230;28;20439;-73
2023/10/05 03:33:17;;;;;;;1999.90;999.90;;;14.20;99.90;;;;;;5106514;28;20432;-73
2023/10/05 03:35:45;;;;;;;1999.90;999.90;;;14.20;99.90;;;;;;5104136;28;20436;-71
2023/10/05 03:38:19;;;;;;;1999.90;999.90;;;14.20;99.90;;;;;;5098353;28;20815;-73
2023/10/05 03:40:47;;;;;;;1999.90;999.90;;;14.20;99.90;;;;;;5101481;28;20427;-73
2023/10/05 03:43:14;;;;;;;1999.90;999.90;;;14.10;99.90;;;;;;5101306;28;20431;-73
2023/10/05 03:45:41;;;;;;;1999.90;999.90;;;14.20;99.90;;;;;;5106032;28;20426;-73
2023/10/05 03:48:10;;;;;;;1999.90;999.90;;;14.20;99.90;;;;;;5101344;28;20836;-73
2023/10/05 03:50:38;;;;;;;1999.90;999.90;;;14.20;99.90;;;;;;5102368;28;20453;-73
2023/10/05 03:53:06;;;;;;;1999.90;999.90;;;14.40;99.90;;;;;;5101084;28;20434;-73
2023/10/05 03:55:33;;;;;;;1999.90;999.90;;;14.10;99.90;;;;;;5104267;28;20463;-73
2023/10/05 03:58:01;;;;;;;1999.90;999.90;;;14.10;99.90;;;;;;5106353;28;20424;-73
2023/10/05 04:00:35;;;;;;;1999.90;999.90;;;14.10;99.90;;;;;;5103422;28;20460;-73
2023/10/05 04:03:02;;;;;;;1999.90;999.90;;;14.10;99.90;;;;;;5093163;28;20421;-72
2023/10/05 04:05:32;;;;;;;1999.90;999.90;;;14.10;99.90;;;;;;5100445;28;20429;-73
2023/10/05 04:08:10;;;;;;;1999.90;999.90;;;14.00;99.90;;;;;;5102590;28;20427;-72
2023/10/05 04:10:46;;;;;;;1999.90;999.90;;;14.00;99.90;;;;;;5106676;28;20430;-73
2023/10/05 04:13:12;;;;;;;1999.90;999.90;;;14.00;99.90;;;;;;5105851;28;20451;-73
2023/10/05 04:15:39;;;;;;;1999.90;999.90;;;14.00;99.90;;;;;;5096790;28;20435;-73
2023/10/05 04:18:10;;;;;;;1999.90;999.90;;;14.00;99.90;;;;;;5100464;28;20422;-71
2023/10/05 04:20:37;;;;;;;1999.90;999.90;;;13.90;99.90;;;;;;5101120;28;20449;-73
2023/10/05 04:23:07;;;;;;;1999.90;999.90;;;13.90;99.90;;;;;;5104754;28;20424;-72
2023/10/05 04:25:33;;;;;;;1999.90;999.90;;;13.90;99.90;;;;;;5099784;28;20426;-73
2023/10/05 04:28:00;;;;;;;1999.90;999.90;;;13.90;99.90;;;;;;5103766;28;20426;-73
2023/10/05 04:30:27;;;;;;;1999.90;999.90;;;14.00;99.90;;;;;;5093289;28;20807;-73
2023/10/05 04:32:54;;;;;;;1999.90;999.90;;;13.90;99.90;;;;;;5098499;28;20450;-73
2023/10/05 04:35:23;;;;;;;1999.90;999.90;;;13.90;99.90;;;;;;5097788;28;20427;-73
2023/10/05 04:37:51;;;;;;;1999.90;999.90;;;14.30;99.90;;;;;;5106363;28;20493;-73
2023/10/05 04:40:22;;;;;;;1999.90;999.90;;;14.00;99.90;;;;;;5104458;28;20435;-71
2023/10/05 04:42:49;;;;;;;1999.90;999.90;;;14.00;99.90;;;;;;5097371;28;20490;-73
2023/10/05 04:45:20;;;;;;;1999.90;999.90;;;13.90;99.90;;;;;;5092528;28;20456;-73
2023/10/05 04:47:48;;;;;;;1999.90;999.90;;;14.30;99.90;;;;;;5096080;28;20530;-73
2023/10/05 04:50:17;;;;;;;1999.90;999.90;;;13.90;99.90;;;;;;5098075;28;20485;-73
2023/10/05 04:52:45;;;;;;;1999.90;999.90;;;13.80;99.90;;;;;;5101357;28;20511;-73
2023/10/05 04:55:18;;;;;;;1999.90;999.90;;;13.80;99.90;;;;;;5103583;28;20431;-73
2023/10/05 04:57:55;;;;;;;1999.90;999.90;;;13.80;99.90;;;;;;5095093;28;20824;-73
2023/10/05 05:03:32;;;;;;;1999.90;999.90;;;13.80;99.90;;;;;;5102372;28;20420;-73
2023/10/05 05:06:10;;;;;;;1999.90;999.90;;;13.80;99.90;;;;;;5107178;28;20503;-73
2023/10/05 05:08:38;;;;;;;1999.90;999.90;;;13.90;99.90;;;;;;5104262;28;20430;-72
2023/10/05 05:11:11;;;;;;;1999.90;999.90;;;13.80;99.90;;;;;;5102862;28;20419;-72
2023/10/05 05:13:39;;;;;;;1999.90;999.90;;;14.20;99.90;;;;;;5105256;28;20424;-73
2023/10/05 05:16:07;;;;;;;1999.90;999.90;;;13.80;99.90;;;;;;5102673;28;20516;-73
2023/10/05 05:18:37;;;;;;;1999.90;999.90;;;13.70;99.90;;;;;;5108813;28;20518;-73
2023/10/05 05:21:05;;;;;;;1999.90;999.90;;;13.80;99.90;;;;;;5103999;28;20431;-73
2023/10/05 05:23:34;;;;;;;1999.90;999.90;;;14.20;99.90;;;;;;5101074;28;20433;-73
2023/10/05 05:26:03;;;;;;;1999.90;999.90;;;13.80;99.90;;;;;;5103078;28;20424;-73
2023/10/05 05:28:30;;;;;;;1999.90;999.90;;;13.90;99.90;;;;;;5107595;28;20431;-73
2023/10/05 05:31:06;;;;;;;1999.90;999.90;;;13.80;99.90;;;;;;5107366;28;20428;-73
2023/10/05 05:33:36;;;;;;;1999.90;999.90;;;13.80;99.90;;;;;;5103318;28;20443;-73
2023/10/05 05:36:07;;;;;;;1999.90;999.90;;;13.80;99.90;;;;;;5107765;28;20477;-73
2023/10/05 05:38:34;;;;;;;1999.90;999.90;;;13.80;99.90;;;;;;5105596;28;20434;-73
2023/10/05 05:41:01;;;;;;;1999.90;999.90;;;13.80;99.90;;;;;;5104390;28;20432;-73
2023/10/05 05:43:29;;;;;;;1999.90;999.90;;;13.90;99.90;;;;;;5102901;28;20433;-72
2023/10/05 05:45:56;;;;;;;1999.90;999.90;;;13.90;99.90;;;;;;5106303;28;20433;-73
2023/10/05 05:48:24;;;;;;;1999.90;999.90;;;13.90;99.90;;;;;;5106195;28;20516;-73
2023/10/05 05:50:53;;;;;;;1999.90;999.90;;;14.20;99.90;;;;;;5101684;28;20483;-73
2023/10/05 05:53:19;;;;;;;1999.90;999.90;;;13.80;99.90;;;;;;5101655;28;20507;-74
2023/10/05 05:55:53;;;;;;;1999.90;999.90;;;13.90;99.90;;;;;;5103777;28;20428;-73
2023/10/05 05:58:19;;;;;;;1999.90;999.90;;;13.90;99.90;;;;;;5107234;28;20425;-72
2023/10/05 06:00:46;;;;;;;1999.90;999.90;;;14.00;99.90;;;;;;5104008;28;20463;-73
2023/10/05 06:03:13;;;;;;;1999.90;999.90;;;14.00;99.90;;;;;;5099906;28;22096;-73
2023/10/05 06:05:41;;;;;;;1999.90;999.90;;;13.90;99.90;;;;;;5095775;28;20481;-73
2023/10/05 06:08:11;;;;;;;1999.90;999.90;;;13.80;99.90;;;;;;5097716;28;20839;-72
2023/10/05 06:10:37;;;;;;;1999.90;999.90;;;13.90;99.90;;;;;;5105380;28;20435;-72
2023/10/05 06:13:07;;;;;;;1999.90;999.90;;;14.00;99.90;;;;;;5109239;28;20506;-73
2023/10/05 06:15:34;;;;;;;1999.90;999.90;;;14.10;99.90;;;;;;5108331;27;20923;-72
2023/10/05 06:18:01;;;;;;;1999.90;999.90;;;14.10;99.90;;;;;;5098967;28;20426;-73
2023/10/05 06:20:28;;;;;;;1999.90;999.90;;;14.00;99.90;;;;;;5097409;28;20920;-73
2023/10/05 06:22:56;;;;;;;1999.90;999.90;;;13.90;99.90;;;;;;5105929;28;20828;-72
2023/10/05 06:25:22;;;;;;;1999.90;999.90;;;13.90;99.90;;;;;;5100689;28;20437;-72
2023/10/05 06:27:50;;;;;;;1999.90;999.90;;;14.10;99.90;;;;;;5101326;28;20420;-73
2023/10/05 06:30:17;;;;;;;1999.90;999.90;;;14.00;99.90;;;;;;5101421;28;20439;-73
2023/10/05 06:32:44;;;;;;;1999.90;999.90;;;13.90;99.90;;;;;;5099000;28;20429;-72
2023/10/05 06:35:12;;;;;;;1999.90;999.90;;;13.90;99.90;;;;;;5103366;28;20445;-73
2023/10/05 06:37:39;;;;;;;1999.90;999.90;;;13.90;99.90;;;;;;5103357;28;20472;-73
2023/10/05 06:40:12;;;;;;;1999.90;999.90;;;14.20;99.90;;;;;;5103512;28;20434;-73
2023/10/05 06:42:41;;;;;;;1999.90;999.90;;;14.00;99.90;;;;;;5100763;28;20469;-72
2023/10/05 06:45:09;;;;;;;1999.90;999.90;;;14.00;99.90;;;;;;5100205;28;20437;-72
2023/10/05 06:47:36;;;;;;;1999.90;999.90;;;14.00;99.90;;;;;;5097971;28;20452;-72
2023/10/05 06:50:08;;;;;;;1999.90;999.90;;;14.10;99.90;;;;;;5103439;28;20432;-73
2023/10/05 06:52:39;;;;;;;1999.90;999.90;;;14.10;99.90;;;;;;5100803;28;20488;-72
2023/10/05 06:55:08;;;;;;;1999.90;999.90;;;14.20;99.90;;;;;;5103211;28;20515;-71
2023/10/05 06:57:36;;;;;;;1999.90;999.90;;;14.10;99.90;;;;;;5101437;28;20571;-72
2023/10/05 07:00:11;;;;;;;1999.90;999.90;;;14.20;99.90;;;;;;5100892;28;20460;-73
2023/10/05 07:02:38;;;;;;;1999.90;999.90;;;14.20;99.90;;;;;;5095593;28;20844;-73
2023/10/05 07:05:06;;;;;;;1999.90;999.90;;;14.60;99.90;;;;;;5097646;28;20923;-72
2023/10/05 07:07:33;;;;;;;1999.90;999.90;;;14.50;99.90;;;;;;5102473;28;20424;-72
2023/10/05 07:09:59;;;;;;;1999.90;999.90;;;14.50;99.90;;;;;;5094737;28;20416;-72
2023/10/05 07:12:27;;;;;;;1999.90;999.90;;;14.60;99.90;;;;;;5099324;28;20446;-73
2023/10/05 07:14:56;;;;;;;1999.90;999.90;;;14.70;99.90;;;;;;5106282;28;20481;-72
2023/10/05 07:17:22;;;;;;;1999.90;999.90;;;14.70;99.90;;;;;;5098804;28;20435;-72
2023/10/05 07:19:49;;;;;;;1999.90;999.90;;;14.60;99.90;;;;;;5101218;28;20420;-72
2023/10/05 07:22:17;;;;;;;1999.90;999.90;;;14.60;99.90;;;;;;5099965;28;20426;-73
2023/10/05 07:24:44;;;;;;;1999.90;999.90;;;14.60;99.90;;;;;;5097568;28;20432;-73
2023/10/05 07:27:11;;;;;;;1999.90;999.90;;;14.60;99.90;;;;;;5091980;28;20433;-73
2023/10/05 07:29:44;;;;;;;1999.90;999.90;;;14.60;99.90;;;;;;5089594;28;20422;-73
2023/10/05 07:32:11;;;;;;;1999.90;999.90;;;14.80;99.90;;;;;;5097856;28;20550;-72
2023/10/05 07:34:38;;;;;;;1999.90;999.90;;;14.50;99.90;;;;;;5097640;27;20946;-73
2023/10/05 07:37:05;;;;;;;1999.90;999.90;;;14.60;99.90;;;;;;5098825;28;20442;-72
2023/10/05 07:39:32;;;;;;;1999.90;999.90;;;14.70;99.90;;;;;;5099178;28;20422;-73
2023/10/05 07:41:59;;;;;;;1999.90;999.90;;;14.80;99.90;;;;;;5106062;28;20785;-73
2023/10/05 07:44:27;;;;;;;1999.90;999.90;;;14.90;99.90;;;;;;5099327;28;20425;-72
2023/10/05 07:46:55;;;;;;;1999.90;999.90;;;14.80;99.90;;;;;;5099767;28;20469;-74
2023/10/05 07:49:21;;;;;;;1999.90;999.90;;;14.90;99.90;;;;;;5101803;28;20429;-73
2023/10/05 07:51:48;;;;;;;1999.90;999.90;;;14.90;99.90;;;;;;5103081;28;20458;-73
2023/10/05 07:54:15;;;;;;;1999.90;999.90;;;15.10;99.90;;;;;;5102190;28;20439;-73
2023/10/05 07:56:42;;;;;;;1999.90;999.90;;;15.30;99.90;;;;;;5101988;28;20423;-73
2023/10/05 07:59:08;;;;;;;1999.90;999.90;;;15.20;99.90;;;;;;5102233;28;20925;-73
2023/10/05 08:01:36;;;;;;;1999.90;999.90;;;15.30;99.90;;;;;;5101321;28;20870;-73
2023/10/05 08:04:04;;;;;;;1999.90;999.90;;;15.50;99.90;;;;;;5101798;28;20446;-73
2023/10/05 08:06:31;;;;;;;1999.90;999.90;;;15.90;99.90;;;;;;5103706;28;20428;-73
2023/10/05 08:08:58;;;;;;;1999.90;999.90;;;16.70;99.90;;;;;;5099219;28;20432;-73
2023/10/05 08:11:25;;;;;;;1999.90;999.90;;;16.50;99.90;;;;;;5097998;28;20912;-74
2023/10/05 08:13:52;;;;;;;1999.90;999.90;;;16.60;99.90;;;;;;5102952;28;20437;-72
2023/10/05 08:16:18;;;;;;;1999.90;999.90;;;16.50;99.90;;;;;;5106857;28;20423;-73
2023/10/05 08:18:45;;;;;;;1999.90;999.90;;;16.50;99.90;;;;;;5099096;28;20418;-73
2023/10/05 08:21:14;;;;;;;1999.90;999.90;;;16.40;99.90;;;;;;5098291;28;20777;-73
2023/10/05 08:23:41;;;;;;;1999.90;999.90;;;16.30;99.90;;;;;;5099760;28;20918;-73
2023/10/05 08:26:08;;;;;;;1999.90;999.90;;;16.50;99.90;;;;;;5104879;28;20431;-73
2023/10/05 08:28:36;;;;;;;1999.90;999.90;;;16.70;99.90;;;;;;5100835;28;20481;-73
2023/10/05 08:31:07;;;;;;;1999.90;999.90;;;16.90;99.90;;;;;;5100934;28;20437;-73
2023/10/05 08:33:34;;;;;;;1999.90;999.90;;;17.00;99.90;;;;;;5104404;28;20437;-73
2023/10/05 08:36:06;;;;;;;1999.90;999.90;;;16.80;99.90;;;;;;5105872;28;20424;-73
2023/10/05 08:38:35;;;;;;;1999.90;999.90;;;16.70;99.90;;;;;;5106000;28;20514;-72
2023/10/05 08:41:07;;;;;;;1999.90;999.90;;;16.70;99.90;;;;;;5102257;28;20434;-73
2023/10/05 08:43:35;;;;;;;1999.90;999.90;;;16.60;99.90;;;;;;5102636;28;20435;-73
2023/10/05 08:46:10;;;;;;;1999.90;999.90;;;16.50;99.90;;;;;;5106996;28;20515;-73
2023/10/05 08:48:38;;;;;;;1999.90;999.90;;;16.40;99.90;;;;;;5103446;28;20438;-73
2023/10/05 08:51:10;;;;;;;1999.90;999.90;;;16.50;99.90;;;;;;5104310;28;20487;-73
2023/10/05 08:53:43;;;;;;;1999.90;999.90;;;16.70;99.90;;;;;;5100256;28;20940;-73
2023/10/05 08:56:13;;;;;;;1999.90;999.90;;;16.90;99.90;;;;;;5106614;28;20481;-73
2023/10/05 08:58:41;;;;;;;1999.90;999.90;;;16.80;99.90;;;;;;5109952;28;20429;-72
2023/10/05 09:01:24;;;;;;;1999.90;999.90;;;16.80;99.90;;;;;;5102219;28;20589;-73
2023/10/05 09:03:53;;;;;;;1999.90;999.90;;;17.00;99.90;;;;;;5096743;28;20420;-73
2023/10/05 09:06:21;;;;;;;1999.90;999.90;;;17.10;99.90;;;;;;5103254;28;20933;-73
2023/10/05 09:08:54;;;;;;;1999.90;999.90;;;17.10;99.90;;;;;;5109073;28;20835;-73
2023/10/05 09:11:26;;;;;;;1999.90;999.90;;;17.20;99.90;;;;;;5109083;28;20439;-74
2023/10/05 09:13:53;;;;;;;1999.90;999.90;;;17.10;99.90;;;;;;5101544;28;20529;-73
2023/10/05 09:16:30;;;;;;;1999.90;999.90;;;17.20;99.90;;;;;;5107055;28;20428;-73
2023/10/05 09:18:57;;;;;;;1999.90;999.90;;;17.30;99.90;;;;;;5103010;28;20469;-73
2023/10/05 09:21:43;;;;;;;1999.90;999.90;;;17.10;99.90;;;;;;5105829;28;20871;-74
2023/10/05 09:24:20;;;;;;;1999.90;999.90;;;17.10;99.90;;;;;;5100215;28;20468;-74
2023/10/05 09:26:54;;;;;;;1999.90;999.90;;;17.00;99.90;;;;;;5102503;28;20477;-73
2023/10/05 09:29:21;;;;;;;1999.90;999.90;;;17.10;99.90;;;;;;5099696;28;20425;-73
2023/10/05 09:31:51;;;;;;;1999.90;999.90;;;17.20;99.90;;;;;;5108354;28;20502;-73
2023/10/05 09:34:20;;;;;;;1999.90;999.90;;;17.20;99.90;;;;;;5104746;28;20540;-72
2023/10/05 09:36:47;;;;;;;1999.90;999.90;;;17.30;99.90;;;;;;5104418;28;20428;-73
2023/10/05 09:39:17;;;;;;;1999.90;999.90;;;17.20;99.90;;;;;;5103515;28;20519;-73
2023/10/05 09:41:50;;;;;;;1999.90;999.90;;;17.20;99.90;;;;;;5103023;28;20791;-73
2023/10/05 09:44:17;;;;;;;1999.90;999.90;;;17.20;99.90;;;;;;5106921;28;20443;-73
2023/10/05 09:46:45;;;;;;;1999.90;999.90;;;17.30;99.90;;;;;;5098049;28;20916;-73
2023/10/05 09:49:14;;;;;;;1999.90;999.90;;;17.30;99.90;;;;;;5104953;28;20435;-73
2023/10/05 09:51:43;;;;;;;1999.90;999.90;;;17.20;99.90;;;;;;5106061;28;20438;-73
2023/10/05 09:54:11;;;;;;;1999.90;999.90;;;17.20;99.90;;;;;;5125752;28;20455;-74
2023/10/05 09:56:41;;;;;;;1999.90;999.90;;;17.10;99.90;;;;;;5123478;28;20431;-73
2023/10/05 09:59:15;;;;;;;1999.90;999.90;;;17.20;99.90;;;;;;5112466;28;20487;-72
2023/10/05 10:01:45;;;;;;;1999.90;999.90;;;17.10;99.90;;;;;;5100201;28;20464;-73
2023/10/05 10:04:24;;;;;;;1999.90;999.90;;;17.10;99.90;;;;;;5101506;28;20424;-74
2023/10/05 10:06:53;;;;;;;1999.90;999.90;;;17.20;99.90;;;;;;5096289;28;20426;-73
2023/10/05 10:09:26;;;;;;;1999.90;999.90;;;17.30;99.90;;;;;;5097598;28;20938;-72
2023/10/05 10:11:59;;;;;;;1999.90;999.90;;;17.20;99.90;;;;;;5094453;28;20426;-73
2023/10/05 10:14:26;;;;;;;1999.90;999.90;;;17.30;99.90;;;;;;5096450;28;20883;-73
2023/10/05 10:17:00;;;;;;;1999.90;999.90;;;17.00;99.90;;;;;;5104294;28;20509;-73
2023/10/05 10:19:28;;;;;;;1999.90;999.90;;;17.10;99.90;;;;;;5101245;28;20455;-74
2023/10/05 10:22:00;;;;;;;1999.90;999.90;;;17.20;99.90;;;;;;5095811;28;20437;-73
2023/10/05 10:24:29;;;;;;;1999.90;999.90;;;17.20;99.90;;;;;;5097411;28;20436;-73
2023/10/05 10:27:08;;;;;;;1999.90;999.90;;;17.40;99.90;;;;;;5104862;28;20506;-74
2023/10/05 10:29:43;;;;;;;1999.90;999.90;;;17.50;99.90;;;;;;5106425;28;20420;-73
2023/10/05 10:32:19;;;;;;;1999.90;999.90;;;17.60;99.90;;;;;;5094565;28;20430;-73
2023/10/05 10:34:50;;;;;;;1999.90;999.90;;;17.60;99.90;;;;;;5095845;28;20913;-73
2023/10/05 10:37:36;;;;;;;1999.90;999.90;;;17.80;99.90;;;;;;5106510;28;20473;-74
2023/10/05 10:40:11;;;;;;;1999.90;999.90;;;17.70;99.90;;;;;;5100116;28;20499;-73
2023/10/05 10:42:53;;;;;;;1999.90;999.90;;;17.80;99.90;;;;;;5098662;28;20428;-74
2023/10/05 10:45:23;;;;;;;1999.90;999.90;;;17.90;99.90;;;;;;5097645;28;20422;-73
2023/10/05 10:47:52;;;;;;;1999.90;999.90;;;17.90;99.90;;;;;;5096201;28;20454;-73
2023/10/05 10:50:23;;;;;;;1999.90;999.90;;;17.90;99.90;;;;;;5098868;28;20420;-73
2023/10/05 10:52:51;;;;;;;1999.90;999.90;;;18.00;99.90;;;;;;5098400;28;20558;-73
2023/10/05 10:55:20;;;;;;;1999.90;999.90;;;18.00;99.90;;;;;;5098538;28;20456;-73
2023/10/05 10:57:48;;;;;;;1999.90;999.90;;;18.10;99.90;;;;;;5094541;28;20431;-73
2023/10/05 11:03:09;;;;;;;1999.90;999.90;;;18.10;99.90;;;;;;5102974;28;21039;-75
2023/10/05 11:05:39;;;;;;;1999.90;999.90;;;18.10;99.90;;;;;;5095843;28;20423;-74
2023/10/05 11:08:09;;;;;;;1999.90;999.90;;;18.20;99.90;;;;;;5092719;28;20414;-73
2023/10/05 11:10:35;;;;;;;1999.90;999.90;;;18.20;99.90;;;;;;5093870;28;20420;-74
2023/10/05 11:13:14;;;;;;;1999.90;999.90;;;18.40;99.90;;;;;;5102990;28;20914;-73
2023/10/05 11:15:57;;;;;;;1999.90;999.90;;;18.50;99.90;;;;;;5094241;28;20937;-73
2023/10/05 11:18:26;;;;;;;1999.90;999.90;;;18.50;99.90;;;;;;5097403;28;20999;-74
2023/10/05 11:20:54;;;;;;;1999.90;999.90;;;18.40;99.90;;;;;;5092015;28;21303;-74
2023/10/05 11:23:25;;;;;;;1999.90;999.90;;;18.30;99.90;;;;;;5097064;28;20431;-73
2023/10/05 11:26:03;;;;;;;1999.90;999.90;;;18.30;99.90;;;;;;5098895;28;20429;-73
2023/10/05 11:28:31;;;;;;;1999.90;999.90;;;18.30;99.90;;;;;;5092970;28;20432;-74
2023/10/05 11:30:59;;;;;;;1999.90;999.90;;;18.30;99.90;;;;;;5092262;28;20477;-75
2023/10/05 11:33:33;;;;;;;1999.90;999.90;;;18.30;99.90;;;;;;5093972;28;20492;-74
2023/10/05 11:36:17;;;;;;;1999.90;999.90;;;18.50;99.90;;;;;;5096082;28;20513;-74
2023/10/05 11:38:44;;;;;;;1999.90;999.90;;;18.40;99.90;;;;;;5090014;28;20970;-74
2023/10/05 11:41:16;;;;;;;1999.90;999.90;;;18.30;99.90;;;;;;5097832;28;20493;-74
2023/10/05 11:43:43;;;;;;;1999.90;999.90;;;18.30;99.90;;;;;;5094096;28;20499;-73
2023/10/05 11:46:17;;;;;;;1999.90;999.90;;;18.30;99.90;;;;;;5098101;28;20425;-74
2023/10/05 11:48:48;;;;;;;1999.90;999.90;;;18.20;99.90;;;;;;5095997;28;20449;-73
2023/10/05 11:51:19;;;;;;;1999.90;999.90;;;18.30;99.90;;;;;;5096940;28;20493;-74
2023/10/05 11:53:46;;;;;;;1999.90;999.90;;;18.20;99.90;;;;;;5097523;28;20437;-74
2023/10/05 11:56:15;;;;;;;1999.90;999.90;;;18.20;99.90;;;;;;5095422;28;20427;-73
2023/10/05 11:58:42;;;;;;;1999.90;999.90;;;18.40;99.90;;;;;;5095871;28;20433;-71
2023/10/05 12:01:09;;;;;;;1999.90;999.90;;;18.10;99.90;;;;;;5100734;28;20420;-73
2023/10/05 12:03:43;;;;;;;1999.90;999.90;;;18.00;99.90;;;;;;5098885;28;20429;-73
2023/10/05 12:06:11;;;;;;;1999.90;999.90;;;18.00;99.90;;;;;;5096333;28;20460;-74
2023/10/05 12:08:38;;;;;;;1999.90;999.90;;;18.00;99.90;;;;;;5096135;28;20467;-74
2023/10/05 12:11:04;;;;;;;1999.90;999.90;;;17.80;99.90;;;;;;5101814;28;20430;-74
2023/10/05 12:13:31;;;;;;;1999.90;999.90;;;17.80;99.90;;;;;;5101386;28;20433;-74
2023/10/05 12:15:58;;;;;;;1999.90;999.90;;;17.90;99.90;;;;;;5096992;28;20426;-73
2023/10/05 12:18:25;;;;;;;1999.90;999.90;;;18.00;99.90;;;;;;5096558;28;20422;-74